Time;durP1;ratioP1;P1;durP2;ratioP2;P2;SDS_P1;SDS_P2;PMS_P1;PMS_P2;Temp;Humidity;BMP_temperature;BMP_pressure;BME280_temperature;BME280_humidity;BME280_pressure;Samples;Min_cycle;Max_cycle;Signal;HPM_P1;HPM_P2
2024/03/08 00:01:06;;;;;;;29.20;18.33;;;;;;;-146.18;100.00;67994.34;10349864;27;20048;-72
2024/03/08 00:06:04;;;;;;;27.90;18.30;;;;;;;-146.18;100.00;67994.34;10347042;27;20063;-72
2024/03/08 00:11:01;;;;;;;25.75;17.90;;;;;;;-146.18;100.00;67994.34;10338118;27;20058;-71
2024/03/08 00:15:58;;;;;;;23.02;18.05;;;;;;;-146.18;100.00;67994.34;10354015;27;20101;-72
2024/03/08 00:20:54;;;;;;;26.85;19.33;;;;;;;-146.18;100.00;67994.34;10358716;27;20048;-71
2024/03/08 00:25:51;;;;;;;26.23;18.58;;;;;;;-146.18;100.00;67994.34;10351656;27;20140;-71
2024/03/08 00:30:47;;;;;;;24.10;18.45;;;;;;;-146.18;100.00;67994.34;10349589;27;20048;-72
2024/03/08 00:35:44;;;;;;;23.02;18.23;;;;;;;-146.18;100.00;67994.34;10353737;27;20055;-71
2024/03/08 00:40:40;;;;;;;26.70;20.42;;;;;;;-146.18;100.00;67994.34;10360251;27;20047;-71
2024/03/08 00:45:37;;;;;;;27.48;18.55;;;;;;;-146.18;100.00;67994.34;10346769;27;20040;-71
2024/03/08 00:50:33;;;;;;;24.60;19.27;;;;;;;-146.18;100.00;67994.34;10348961;27;20043;-72
2024/03/08 00:55:30;;;;;;;27.95;19.20;;;;;;;-146.18;100.00;67994.34;10352984;27;20044;-71
2024/03/08 01:00:27;;;;;;;27.48;19.17;;;;;;;-146.18;100.00;67994.34;10354153;28;20056;-71
2024/03/08 01:05:24;;;;;;;25.13;19.48;;;;;;;-146.18;100.00;67994.34;10348434;27;20051;-72
2024/03/08 01:10:21;;;;;;;24.02;18.67;;;;;;;-146.18;100.00;67994.34;10351080;27;20450;-71
2024/03/08 01:15:18;;;;;;;26.25;19.20;;;;;;;-146.18;100.00;67994.34;10342978;27;20044;-72
2024/03/08 01:20:14;;;;;;;28.48;20.98;;;;;;;-146.18;100.00;67994.34;10355328;27;20044;-71
2024/03/08 01:25:11;;;;;;;24.48;20.02;;;;;;;-146.18;100.00;67994.34;10349915;28;20085;-72
2024/03/08 01:30:09;;;;;;;27.65;19.83;;;;;;;-146.18;100.00;67994.34;10344621;27;20089;-72
2024/03/08 01:35:06;;;;;;;30.80;21.05;;;;;;;-146.18;100.00;67994.34;10348771;27;20056;-71
2024/03/08 01:40:03;;;;;;;30.40;20.67;;;;;;;-146.18;100.00;67994.34;10348429;27;20113;-71
2024/03/08 01:45:00;;;;;;;23.40;19.92;;;;;;;-146.18;100.00;67994.34;10355238;28;20146;-71
2024/03/08 01:49:58;;;;;;;26.58;19.70;;;;;;;-146.18;100.00;67994.34;10350651;28;20048;-72
2024/03/08 01:54:54;;;;;;;30.35;21.48;;;;;;;-146.18;100.00;67994.34;10348304;27;20412;-71
2024/03/08 01:59:54;;;;;;;24.98;19.73;;;;;;;-146.18;100.00;67994.34;10347471;27;20044;-71
2024/03/08 02:04:52;;;;;;;23.98;19.55;;;;;;;-146.18;100.00;67994.34;10351406;27;20040;-70
2024/03/08 02:09:49;;;;;;;24.80;19.70;;;;;;;-146.18;100.00;67994.34;10351105;27;20040;-72
2024/03/08 02:14:45;;;;;;;27.40;20.08;;;;;;;-146.18;100.00;67994.34;10356104;27;20507;-72
2024/03/08 02:19:42;;;;;;;23.13;20.58;;;;;;;-146.18;100.00;67994.34;10349046;28;20040;-71
2024/03/08 02:24:38;;;;;;;24.73;20.67;;;;;;;-146.18;100.00;67994.34;10356918;27;20040;-71
2024/03/08 02:29:36;;;;;;;25.45;20.52;;;;;;;-146.18;100.00;67994.34;10360162;27;20501;-72
2024/03/08 02:34:33;;;;;;;30.83;21.05;;;;;;;-146.18;100.00;67994.34;10358699;27;20064;-73
2024/03/08 02:39:29;;;;;;;23.73;21.10;;;;;;;-146.18;100.00;67994.34;10356614;27;20047;-71
2024/03/08 02:44:26;;;;;;;31.80;21.30;;;;;;;-146.18;100.00;67994.34;10353364;28;20135;-71
2024/03/08 02:49:22;;;;;;;31.05;20.42;;;;;;;-146.18;100.00;67994.34;10353456;27;20097;-71
2024/03/08 02:54:20;;;;;;;29.60;22.15;;;;;;;-146.18;100.00;67994.34;10357822;27;20040;-71
2024/03/08 02:59:19;;;;;;;27.17;20.52;;;;;;;-146.18;100.00;67994.34;10349540;27;20044;-71
2024/03/08 03:04:16;;;;;;;31.48;20.77;;;;;;;-146.18;100.00;67994.34;10350270;27;20040;-71
2024/03/08 03:09:16;;;;;;;29.55;21.45;;;;;;;-146.18;100.00;67994.34;10349054;27;20044;-71
2024/03/08 03:14:13;;;;;;;24.90;20.42;;;;;;;-146.18;100.00;67994.34;10345700;27;20515;-71
2024/03/08 03:19:09;;;;;;;30.08;21.63;;;;;;;-146.18;100.00;67994.34;10354961;27;20036;-71
2024/03/08 03:24:09;;;;;;;31.13;22.33;;;;;;;-146.18;100.00;67994.34;10350230;27;20089;-71
2024/03/08 03:29:08;;;;;;;27.08;21.30;;;;;;;-146.18;100.00;67994.34;10346460;27;20047;-71
2024/03/08 03:34:08;;;;;;;36.65;22.35;;;;;;;-146.18;100.00;67994.34;10355053;27;20083;-71
2024/03/08 03:39:12;;;;;;;26.80;21.35;;;;;;;-146.18;100.00;67994.34;10353532;27;20133;-71
2024/03/08 03:44:09;;;;;;;34.75;21.92;;;;;;;-146.18;100.00;67994.34;10351083;27;20109;-72
2024/03/08 03:49:06;;;;;;;27.95;21.08;;;;;;;-146.18;100.00;67994.34;10351616;27;20142;-71
2024/03/08 03:54:03;;;;;;;29.40;22.20;;;;;;;-146.18;100.00;67994.34;10355762;27;20048;-71
2024/03/08 03:59:00;;;;;;;29.63;21.92;;;;;;;-146.18;100.00;67994.34;10345198;28;20040;-71
2024/03/08 04:03:56;;;;;;;28.50;22.52;;;;;;;-146.18;100.00;67994.34;10350623;27;20087;-72
2024/03/08 04:08:52;;;;;;;29.98;22.60;;;;;;;-146.18;100.00;67994.34;10352319;28;20411;-71
2024/03/08 04:13:49;;;;;;;29.70;23.30;;;;;;;-146.18;100.00;67994.34;10354160;27;20564;-71
2024/03/08 04:18:46;;;;;;;29.13;21.88;;;;;;;-146.18;100.00;67994.34;10345239;27;20044;-71
2024/03/08 04:23:45;;;;;;;34.10;24.17;;;;;;;-146.18;100.00;67994.34;10361010;27;20040;-71
2024/03/08 04:28:41;;;;;;;29.25;22.38;;;;;;;-146.18;100.00;67994.34;10352964;27;20127;-71
2024/03/08 04:33:38;;;;;;;27.77;22.80;;;;;;;-146.18;100.00;67994.34;10348483;27;20055;-71
2024/03/08 04:38:35;;;;;;;29.88;22.95;;;;;;;-146.18;100.00;67994.34;10352256;27;20431;-72
2024/03/08 04:43:33;;;;;;;29.63;23.52;;;;;;;-146.18;100.00;67994.34;10342413;27;20123;-71
2024/03/08 04:48:29;;;;;;;30.80;23.20;;;;;;;-146.18;100.00;67994.34;10348629;27;20036;-72
2024/03/08 04:53:26;;;;;;;33.15;23.75;;;;;;;-146.18;100.00;67994.34;10351002;27;20127;-72
2024/03/08 04:58:23;;;;;;;30.75;24.45;;;;;;;-146.18;100.00;67994.34;10352595;27;20036;-71
2024/03/08 05:03:21;;;;;;;30.00;24.20;;;;;;;-146.18;100.00;67994.34;10348183;27;20040;-71
2024/03/08 05:08:18;;;;;;;31.02;24.20;;;;;;;-146.18;100.00;67994.34;10351008;27;20055;-71
2024/03/08 05:13:16;;;;;;;29.73;24.23;;;;;;;-146.18;100.00;67994.34;10353687;27;20052;-71
2024/03/08 05:18:14;;;;;;;34.53;25.08;;;;;;;-146.18;100.00;67994.34;10351891;28;20044;-71
2024/03/08 05:23:11;;;;;;;32.42;24.90;;;;;;;-146.18;100.00;67994.34;10345535;27;20495;-71
2024/03/08 05:28:08;;;;;;;33.53;25.27;;;;;;;-146.18;100.00;67994.34;10350007;27;20040;-71
2024/03/08 05:33:05;;;;;;;31.02;24.40;;;;;;;-146.18;100.00;67994.34;10352879;27;20051;-72
2024/03/08 05:38:01;;;;;;;29.33;23.23;;;;;;;-146.18;100.00;67994.34;10349352;27;20040;-73
2024/03/08 05:43:01;;;;;;;36.75;25.02;;;;;;;-146.18;100.00;67994.34;10351849;27;20044;-72
2024/03/08 05:47:57;;;;;;;31.13;23.95;;;;;;;-146.18;100.00;67994.34;10351769;27;20097;-71
2024/03/08 05:52:55;;;;;;;32.65;24.90;;;;;;;-146.18;100.00;67994.34;10355952;27;20051;-71
2024/03/08 05:57:53;;;;;;;28.48;23.90;;;;;;;-146.18;100.00;67994.34;10347899;28;20097;-71
2024/03/08 06:02:50;;;;;;;40.90;25.77;;;;;;;-146.18;100.00;67994.34;10354729;27;20523;-71
2024/03/08 06:07:46;;;;;;;32.42;24.25;;;;;;;-146.18;100.00;67994.34;10357728;27;20448;-71
2024/03/08 06:12:43;;;;;;;35.05;24.60;;;;;;;-146.18;100.00;67994.34;10356144;27;20048;-71
2024/03/08 06:17:40;;;;;;;34.28;25.13;;;;;;;-146.18;100.00;67994.34;10350368;27;20052;-71
2024/03/08 06:22:42;;;;;;;34.10;24.73;;;;;;;-146.18;100.00;67994.34;10350654;27;20036;-71
2024/03/08 06:27:46;;;;;;;34.85;25.25;;;;;;;-146.18;100.00;67994.34;10352633;27;20040;-72
2024/03/08 06:32:43;;;;;;;33.50;25.77;;;;;;;-146.18;100.00;67994.34;10352144;27;20075;-71
2024/03/08 06:37:42;;;;;;;31.10;24.83;;;;;;;-146.18;100.00;67994.34;10353772;27;20132;-71
2024/03/08 06:42:38;;;;;;;36.80;27.00;;;;;;;-146.18;100.00;67994.34;10360788;27;20466;-71
2024/03/08 06:47:34;;;;;;;37.20;26.63;;;;;;;-146.18;100.00;67994.34;10353985;27;20462;-71
2024/03/08 06:52:31;;;;;;;31.75;25.08;;;;;;;-146.18;100.00;67994.34;10357612;27;20036;-71
2024/03/08 06:57:29;;;;;;;37.28;25.58;;;;;;;-146.18;100.00;67994.34;10351696;28;20040;-71
2024/03/08 07:02:25;;;;;;;39.65;26.05;;;;;;;-146.18;100.00;67994.34;10348151;27;20040;-71
2024/03/08 07:07:22;;;;;;;37.22;25.85;;;;;;;-146.18;100.00;67994.34;10345626;27;20040;-71
2024/03/08 07:12:20;;;;;;;35.40;25.88;;;;;;;-146.18;100.00;67994.34;10350977;27;20474;-71
2024/03/08 07:17:17;;;;;;;38.22;27.58;;;;;;;-146.18;100.00;67994.34;10356843;27;20044;-71
2024/03/08 07:22:13;;;;;;;34.20;25.95;;;;;;;-146.18;100.00;67994.34;10354248;27;20040;-72
2024/03/08 07:27:11;;;;;;;38.35;26.95;;;;;;;-146.18;100.00;67994.34;10354075;27;20063;-71
2024/03/08 07:32:25;;;;;;;38.65;27.10;;;;;;;-146.18;100.00;67994.34;10356099;27;20051;-72
2024/03/08 07:37:22;;;;;;;34.03;26.20;;;;;;;-146.18;100.00;67994.34;10351915;28;20102;-71
2024/03/08 07:42:18;;;;;;;35.80;25.92;;;;;;;-146.18;100.00;67994.34;10353497;27;20055;-71
2024/03/08 07:47:17;;;;;;;35.97;25.40;;;;;;;-146.18;100.00;67994.34;10355444;27;20052;-71
2024/03/08 07:52:15;;;;;;;35.45;25.40;;;;;;;-146.18;100.00;67994.34;10346689;27;20487;-71
2024/03/08 07:57:11;;;;;;;39.78;26.75;;;;;;;-146.18;100.00;67994.34;10352213;27;20516;-71
2024/03/08 08:02:08;;;;;;;39.67;25.98;;;;;;;-146.18;100.00;67994.34;10350120;27;20044;-71
2024/03/08 08:07:07;;;;;;;37.53;25.67;;;;;;;-146.18;100.00;67994.34;10354616;27;20047;-71
2024/03/08 08:12:04;;;;;;;34.30;24.88;;;;;;;-146.18;100.00;67994.34;10351741;27;20431;-70
2024/03/08 08:17:04;;;;;;;41.20;24.55;;;;;;;-146.18;100.00;67994.34;10344024;27;20048;-71
2024/03/08 08:22:01;;;;;;;37.60;23.92;;;;;;;-146.18;100.00;67994.34;10356711;27;20056;-71
2024/03/08 08:26:59;;;;;;;34.65;23.95;;;;;;;-146.18;100.00;67994.34;10353238;27;20043;-71
2024/03/08 08:31:59;;;;;;;34.78;24.48;;;;;;;-146.18;100.00;67994.34;10358985;27;20047;-71
2024/03/08 08:36:57;;;;;;;38.80;25.27;;;;;;;-146.18;100.00;67994.34;10352905;27;20040;-71
2024/03/08 08:41:54;;;;;;;31.45;22.00;;;;;;;-146.18;100.00;67994.34;10345472;28;20044;-71
2024/03/08 08:46:51;;;;;;;37.72;25.42;;;;;;;-146.18;100.00;67994.34;10347142;27;20567;-71
2024/03/08 08:51:52;;;;;;;36.10;24.05;;;;;;;-146.18;100.00;67994.34;10357369;27;20127;-71
2024/03/08 08:56:51;;;;;;;33.55;23.00;;;;;;;-146.18;100.00;67994.34;10350333;27;20504;-71
2024/03/08 09:01:48;;;;;;;33.03;23.00;;;;;;;-146.18;100.00;67994.34;10349989;27;20048;-71
2024/03/08 09:06:45;;;;;;;33.53;23.45;;;;;;;-146.18;100.00;67994.34;10343907;27;20115;-71
2024/03/08 09:11:42;;;;;;;32.88;22.48;;;;;;;-146.18;100.00;67994.34;10349976;27;20116;-72
2024/03/08 09:16:38;;;;;;;34.72;23.05;;;;;;;-146.18;100.00;67994.34;10350379;28;20134;-71
2024/03/08 09:21:35;;;;;;;32.88;23.13;;;;;;;-146.18;100.00;67994.34;10343427;27;20063;-71
2024/03/08 09:26:33;;;;;;;32.72;22.10;;;;;;;-146.18;100.00;67994.34;10350311;27;20032;-71
2024/03/08 09:31:30;;;;;;;31.58;21.17;;;;;;;-146.18;100.00;67994.34;10349009;27;20036;-71
2024/03/08 09:36:27;;;;;;;29.17;21.35;;;;;;;-146.18;100.00;67994.34;10359801;27;20073;-71
2024/03/08 09:41:24;;;;;;;34.90;21.65;;;;;;;-146.18;100.00;67994.34;10366594;27;20040;-71
2024/03/08 09:46:22;;;;;;;34.55;21.75;;;;;;;-146.18;100.00;67994.34;10349977;28;20047;-71
2024/03/08 09:51:26;;;;;;;28.13;20.60;;;;;;;-146.18;100.00;67994.34;10348639;27;20071;-71
2024/03/08 09:56:27;;;;;;;29.65;20.35;;;;;;;-146.18;100.00;67994.34;10354869;27;20502;-71
2024/03/08 10:01:25;;;;;;;33.85;21.13;;;;;;;-146.18;100.00;67994.34;10358126;27;20749;-71
2024/03/08 10:06:24;;;;;;;30.60;20.17;;;;;;;-146.18;100.00;67994.34;10338799;27;20039;-71
2024/03/08 10:11:20;;;;;;;29.45;19.45;;;;;;;-146.18;100.00;67994.34;10363848;27;20044;-71
2024/03/08 10:16:18;;;;;;;27.63;19.38;;;;;;;-146.18;100.00;67994.34;10352209;27;20040;-71
2024/03/08 10:21:16;;;;;;;29.15;19.67;;;;;;;-146.18;100.00;67994.34;10365156;27;20071;-72
2024/03/08 10:26:15;;;;;;;27.75;19.10;;;;;;;-146.18;100.00;67994.34;10353893;27;20048;-72
2024/03/08 10:31:12;;;;;;;27.55;19.83;;;;;;;-146.18;100.00;67994.34;10348368;28;20142;-72
2024/03/08 10:36:14;;;;;;;28.05;18.02;;;;;;;-146.18;100.00;67994.34;10346600;27;20052;-71
2024/03/08 10:41:14;;;;;;;28.92;19.63;;;;;;;-146.18;100.00;67994.34;10356120;27;20143;-71
2024/03/08 10:46:19;;;;;;;32.05;18.33;;;;;;;-146.18;100.00;67994.34;10351989;27;20542;-71
2024/03/08 10:51:16;;;;;;;31.02;18.35;;;;;;;-146.18;100.00;67994.34;10354983;27;20050;-71
2024/03/08 10:56:14;;;;;;;25.60;18.15;;;;;;;-146.18;100.00;67994.34;10353365;27;20071;-71
2024/03/08 11:01:11;;;;;;;25.95;18.20;;;;;;;-146.18;100.00;67994.34;10350816;27;20075;-71
2024/03/08 11:06:14;;;;;;;22.40;16.98;;;;;;;-146.18;100.00;67994.34;10349021;27;20115;-71
2024/03/08 11:11:30;;;;;;;23.05;15.77;;;;;;;-146.18;100.00;67994.34;10362904;27;20055;-71
2024/03/08 11:16:31;;;;;;;26.23;18.17;;;;;;;-146.18;100.00;67994.34;10354185;27;20421;-71
2024/03/08 11:21:31;;;;;;;24.50;16.15;;;;;;;-146.18;100.00;67994.34;10355472;27;20093;-71
2024/03/08 11:26:31;;;;;;;24.33;16.17;;;;;;;-146.18;100.00;67994.34;10357870;27;20040;-71
2024/03/08 11:31:28;;;;;;;20.88;15.00;;;;;;;-146.18;100.00;67994.34;10358694;27;20059;-72
2024/03/08 11:36:25;;;;;;;20.10;15.38;;;;;;;-146.18;100.00;67994.34;10356476;27;20063;-71
2024/03/08 11:41:23;;;;;;;24.63;14.82;;;;;;;-146.18;100.00;67994.34;10354391;27;20039;-71
2024/03/08 11:46:21;;;;;;;25.48;15.13;;;;;;;-146.18;100.00;67994.34;10350596;27;20047;-71
2024/03/08 11:51:18;;;;;;;20.52;14.98;;;;;;;-146.18;100.00;67994.34;10355815;27;20087;-70
2024/03/08 11:56:16;;;;;;;20.13;13.73;;;;;;;-146.18;100.00;67994.34;10354849;27;20044;-70
2024/03/08 12:01:12;;;;;;;21.35;15.00;;;;;;;-146.18;100.00;67994.34;10350724;27;20579;-71
2024/03/08 12:06:15;;;;;;;21.08;14.00;;;;;;;-146.18;100.00;67994.34;10355576;27;20694;-71
2024/03/08 12:11:12;;;;;;;18.02;13.43;;;;;;;-146.18;100.00;67994.34;10353482;27;20032;-72
2024/03/08 12:16:09;;;;;;;24.38;15.27;;;;;;;-146.18;100.00;67994.34;10351067;27;20048;-72
2024/03/08 12:21:10;;;;;;;22.27;15.23;;;;;;;-146.18;100.00;67994.34;10346545;27;20674;-71
2024/03/08 12:26:15;;;;;;;20.70;15.15;;;;;;;-146.18;100.00;67994.34;10340489;27;20046;-72
2024/03/08 12:31:12;;;;;;;19.85;13.98;;;;;;;-146.18;100.00;67994.34;10347164;27;20493;-71
2024/03/08 12:36:14;;;;;;;21.67;14.13;;;;;;;-146.18;100.00;67994.34;10339340;27;20140;-70
2024/03/08 12:41:12;;;;;;;19.33;14.85;;;;;;;-146.18;100.00;67994.34;10344181;27;20062;-71
2024/03/08 12:46:09;;;;;;;21.60;14.90;;;;;;;-146.18;100.00;67994.34;10341355;27;20044;-71
2024/03/08 12:51:08;;;;;;;18.70;13.85;;;;;;;-146.18;100.00;67994.34;10346854;27;20052;-71
2024/03/08 12:56:07;;;;;;;17.58;13.70;;;;;;;-146.18;100.00;67994.34;10345957;28;20048;-71
2024/03/08 13:01:07;;;;;;;20.75;14.18;;;;;;;-146.18;100.00;67994.34;10345374;27;20047;-71
2024/03/08 13:06:07;;;;;;;20.13;14.60;;;;;;;-146.18;100.00;67994.34;10345271;27;20040;-71
2024/03/08 13:11:08;;;;;;;16.85;12.77;;;;;;;-146.18;100.00;67994.34;10353196;27;20040;-71
2024/03/08 13:16:08;;;;;;;24.10;15.90;;;;;;;-146.18;100.00;67994.34;10348580;27;20044;-72
2024/03/08 13:21:07;;;;;;;20.05;14.02;;;;;;;-146.18;100.00;67994.34;10338781;27;20044;-72
2024/03/08 13:26:04;;;;;;;18.73;14.00;;;;;;;-146.18;100.00;67994.34;10339371;27;20043;-71
2024/03/08 13:31:06;;;;;;;17.10;13.05;;;;;;;-146.18;100.00;67994.34;10345028;27;20492;-71
2024/03/08 13:36:04;;;;;;;16.77;12.88;;;;;;;-146.18;100.00;67994.34;10345559;27;20411;-71
2024/03/08 13:41:02;;;;;;;15.25;12.55;;;;;;;-146.18;100.00;67994.34;10339370;28;20504;-71
2024/03/08 13:45:59;;;;;;;17.67;12.80;;;;;;;-146.18;100.00;67994.34;10333358;27;20055;-71
2024/03/08 13:50:56;;;;;;;19.05;13.45;;;;;;;-146.18;100.00;67994.34;10356290;27;20121;-71
2024/03/08 13:55:53;;;;;;;18.40;13.23;;;;;;;-146.18;100.00;67994.34;10351256;27;20044;-71
2024/03/08 14:00:51;;;;;;;18.13;13.85;;;;;;;-146.18;100.00;67994.34;10351336;27;20044;-71
2024/03/08 14:05:48;;;;;;;20.83;14.82;;;;;;;-146.18;100.00;67994.34;10348346;28;20056;-72
2024/03/08 14:10:46;;;;;;;18.27;14.25;;;;;;;-146.18;100.00;67994.34;10352906;28;20040;-71
2024/03/08 14:15:46;;;;;;;16.80;13.70;;;;;;;-146.18;100.00;67994.34;10347117;27;20067;-72
2024/03/08 14:20:42;;;;;;;19.65;13.93;;;;;;;-146.18;100.00;67994.34;10364223;27;20054;-71
2024/03/08 14:25:38;;;;;;;19.45;13.10;;;;;;;-146.18;100.00;67994.34;10342395;28;20091;-71
2024/03/08 14:30:37;;;;;;;15.60;12.63;;;;;;;-146.18;100.00;67994.34;10344487;27;20040;-71
2024/03/08 14:35:37;;;;;;;19.42;14.07;;;;;;;-146.18;100.00;67994.34;10360374;27;20109;-72
2024/03/08 14:40:34;;;;;;;21.75;13.93;;;;;;;-146.18;100.00;67994.34;10363415;27;20043;-70
2024/03/08 14:45:31;;;;;;;20.58;15.40;;;;;;;-146.18;100.00;67994.34;10352916;28;20050;-72
2024/03/08 14:50:27;;;;;;;18.38;14.07;;;;;;;-146.18;100.00;67994.34;10346670;28;20128;-72
2024/03/08 14:55:25;;;;;;;19.88;13.52;;;;;;;-146.18;100.00;67994.34;10342305;27;20055;-72
2024/03/08 15:00:33;;;;;;;20.02;13.63;;;;;;;-146.18;100.00;67994.34;10358213;27;20040;-72
2024/03/08 15:05:32;;;;;;;18.88;14.00;;;;;;;-146.18;100.00;67994.34;10357102;27;20457;-72
2024/03/08 15:10:32;;;;;;;20.48;14.20;;;;;;;-146.18;100.00;67994.34;10356927;27;20494;-72
2024/03/08 15:15:30;;;;;;;21.33;13.38;;;;;;;-146.18;100.00;67994.34;10352019;28;20044;-72
2024/03/08 15:20:29;;;;;;;18.98;13.65;;;;;;;-146.18;100.00;67994.34;10354358;27;20105;-72
2024/03/08 15:25:27;;;;;;;19.52;13.30;;;;;;;-146.18;100.00;67994.34;10349898;27;20055;-72
2024/03/08 15:30:26;;;;;;;20.50;14.25;;;;;;;-146.18;100.00;67994.34;10351855;27;20048;-72
2024/03/08 15:35:25;;;;;;;21.60;14.15;;;;;;;-146.18;100.00;67994.34;10345576;27;20534;-72
2024/03/08 15:40:21;;;;;;;19.13;13.32;;;;;;;-146.18;100.00;67994.34;10353435;27;20052;-71
2024/03/08 15:45:19;;;;;;;19.00;12.93;;;;;;;-146.18;100.00;67994.34;10357254;27;20525;-72
2024/03/08 15:50:16;;;;;;;16.40;12.27;;;;;;;-146.18;100.00;67994.34;10356006;27;20048;-72
2024/03/08 15:55:22;;;;;;;21.85;14.77;;;;;;;-146.18;100.00;67994.34;10363391;27;20427;-71
2024/03/08 16:05:31;;;;;;;16.57;12.10;;;;;;;-146.18;100.00;67994.34;10348466;27;20487;-71
2024/03/08 16:10:30;;;;;;;23.33;14.77;;;;;;;-146.18;100.00;67994.34;10355977;27;20043;-72
2024/03/08 16:15:27;;;;;;;20.38;13.00;;;;;;;-146.18;100.00;67994.34;10357777;27;20050;-71
2024/03/08 16:20:25;;;;;;;20.38;13.93;;;;;;;-146.18;100.00;67994.34;10355390;27;20100;-71
2024/03/08 16:25:23;;;;;;;22.30;14.13;;;;;;;-146.18;100.00;67994.34;10352841;27;20515;-70
2024/03/08 16:30:19;;;;;;;19.25;12.68;;;;;;;-146.18;100.00;67994.34;10352542;27;20079;-71
2024/03/08 16:35:17;;;;;;;19.05;12.85;;;;;;;-146.18;100.00;67994.34;10343242;27;20072;-72
2024/03/08 16:40:17;;;;;;;18.65;12.88;;;;;;;-146.18;100.00;67994.34;10358770;27;20044;-72
2024/03/08 16:45:14;;;;;;;19.42;13.10;;;;;;;-146.18;100.00;67994.34;10354068;27;20047;-71
2024/03/08 16:50:15;;;;;;;20.73;13.65;;;;;;;-146.18;100.00;67994.34;10351371;27;20087;-72
2024/03/08 16:55:15;;;;;;;27.25;14.35;;;;;;;-146.18;100.00;67994.34;10353444;27;20056;-71
2024/03/08 17:00:22;;;;;;;21.92;14.23;;;;;;;-146.18;100.00;67994.34;10351718;27;20056;-71
2024/03/08 17:05:18;;;;;;;19.75;13.70;;;;;;;-146.18;100.00;67994.34;10334378;27;20040;-72
2024/03/08 17:10:18;;;;;;;19.75;13.15;;;;;;;-146.18;100.00;67994.34;10351574;27;20044;-71
2024/03/08 17:15:22;;;;;;;22.58;13.95;;;;;;;-146.18;100.00;67994.34;10349895;27;20143;-72
2024/03/08 17:20:22;;;;;;;27.48;15.23;;;;;;;-146.18;100.00;67994.34;10351132;27;20056;-72
2024/03/08 17:25:24;;;;;;;27.02;15.30;;;;;;;-146.18;100.00;67994.34;10353775;27;20066;-72
2024/03/08 17:30:26;;;;;;;25.83;14.13;;;;;;;-146.18;100.00;67994.34;10351758;27;20077;-71
2024/03/08 17:35:25;;;;;;;22.85;14.68;;;;;;;-146.18;100.00;67994.34;10351587;27;20050;-72
2024/03/08 17:40:25;;;;;;;22.77;14.77;;;;;;;-146.18;100.00;67994.34;10338195;27;20128;-71
2024/03/08 17:45:26;;;;;;;23.45;15.52;;;;;;;-146.18;100.00;67994.34;10344227;27;20148;-71
2024/03/08 17:50:24;;;;;;;20.65;14.32;;;;;;;-146.18;100.00;67994.34;10346650;27;20110;-72
2024/03/08 17:55:23;;;;;;;21.90;14.85;;;;;;;-146.18;100.00;67994.34;10357406;27;20462;-72
2024/03/08 18:05:24;;;;;;;22.05;14.40;;;;;;;-146.18;100.00;67994.34;10361254;27;20074;-72
2024/03/08 18:10:21;;;;;;;24.38;14.68;;;;;;;-146.18;100.00;67994.34;10355765;27;20807;-72
2024/03/08 18:15:25;;;;;;;27.73;15.13;;;;;;;-146.18;100.00;67994.34;10349660;27;20166;-71
2024/03/08 18:20:31;;;;;;;22.02;15.07;;;;;;;-146.18;100.00;67994.34;10361111;27;20048;-71
2024/03/08 18:25:28;;;;;;;22.48;14.02;;;;;;;-146.18;100.00;67994.34;10361875;27;20043;-71
2024/03/08 18:30:26;;;;;;;20.05;13.40;;;;;;;-146.18;100.00;67994.34;10357697;27;20522;-72
2024/03/08 18:35:23;;;;;;;21.85;13.93;;;;;;;-146.18;100.00;67994.34;10354353;27;20055;-72
2024/03/08 18:40:23;;;;;;;22.50;14.40;;;;;;;-146.18;100.00;67994.34;10355109;27;20047;-72
2024/03/08 18:45:21;;;;;;;22.20;14.80;;;;;;;-146.18;100.00;67994.34;10354069;27;20047;-71
2024/03/08 18:50:20;;;;;;;26.35;14.65;;;;;;;-146.18;100.00;67994.34;10358780;27;20040;-72
2024/03/08 18:55:23;;;;;;;21.05;13.93;;;;;;;-146.18;100.00;67994.34;10343153;27;20052;-72
2024/03/08 19:00:21;;;;;;;21.92;14.60;;;;;;;-146.18;100.00;67994.34;10357440;27;20051;-72
2024/03/08 19:05:18;;;;;;;21.65;13.90;;;;;;;-146.18;100.00;67994.34;10355990;28;20056;-71
2024/03/08 19:10:18;;;;;;;21.20;13.93;;;;;;;-146.18;100.00;67994.34;10355689;27;20055;-71
2024/03/08 19:15:16;;;;;;;21.60;14.00;;;;;;;-146.18;100.00;67994.34;10350853;27;20054;-71
2024/03/08 19:20:18;;;;;;;22.58;14.23;;;;;;;-146.18;100.00;67994.34;10349885;27;20059;-72
2024/03/08 19:25:17;;;;;;;23.70;14.15;;;;;;;-146.18;100.00;67994.34;10357414;27;20047;-71
2024/03/08 19:30:16;;;;;;;21.48;13.35;;;;;;;-146.18;100.00;67994.34;10358267;27;20051;-72
2024/03/08 19:35:17;;;;;;;24.73;13.65;;;;;;;-146.18;100.00;67994.34;10353924;28;20045;-70
2024/03/08 19:40:23;;;;;;;20.98;13.23;;;;;;;-146.18;100.00;67994.34;10345389;27;20048;-73
2024/03/08 19:45:27;;;;;;;21.38;14.05;;;;;;;-146.18;100.00;67994.34;10352647;27;20040;-70
2024/03/08 19:50:26;;;;;;;23.48;14.65;;;;;;;-146.18;100.00;67994.34;10359962;27;20050;-71
2024/03/08 19:55:23;;;;;;;24.73;14.23;;;;;;;-146.18;100.00;67994.34;10348046;27;20044;-70
2024/03/08 20:00:25;;;;;;;21.27;13.75;;;;;;;-146.18;100.00;67994.34;10350288;27;20097;-70
2024/03/08 20:05:24;;;;;;;21.40;14.48;;;;;;;-146.18;100.00;67994.34;10354536;27;20055;-70
2024/03/08 20:10:22;;;;;;;19.88;12.93;;;;;;;-146.18;100.00;67994.34;10352583;27;20076;-70
2024/03/08 20:15:23;;;;;;;22.33;14.15;;;;;;;-146.18;100.00;67994.34;10359409;27;20125;-71
2024/03/08 20:20:19;;;;;;;22.52;13.70;;;;;;;-146.18;100.00;67994.34;10360060;27;20048;-69
2024/03/08 20:25:26;;;;;;;21.40;13.88;;;;;;;-146.18;100.00;67994.34;10361013;27;20048;-71
2024/03/08 20:30:29;;;;;;;20.10;13.05;;;;;;;-146.18;100.00;67994.34;10363771;27;20051;-72
2024/03/08 20:35:28;;;;;;;21.23;13.82;;;;;;;-146.18;100.00;67994.34;10351905;27;20048;-73
2024/03/08 20:40:42;;;;;;;24.58;15.00;;;;;;;-146.18;100.00;67994.34;10350905;28;20044;-73
2024/03/08 20:45:38;;;;;;;22.17;14.02;;;;;;;-146.18;100.00;67994.34;10347163;27;20538;-72
2024/03/08 20:50:38;;;;;;;25.77;13.88;;;;;;;-146.18;100.00;67994.34;10358434;27;20044;-72
2024/03/08 20:55:36;;;;;;;20.15;13.50;;;;;;;-146.18;100.00;67994.34;10353708;27;20426;-72
2024/03/08 21:05:36;;;;;;;23.55;13.95;;;;;;;-146.18;100.00;67994.34;10362535;27;20040;-72
2024/03/08 21:10:34;;;;;;;23.73;13.65;;;;;;;-146.18;100.00;67994.34;10355132;27;20044;-72
2024/03/08 21:15:32;;;;;;;25.25;13.80;;;;;;;-146.18;100.00;67994.34;10341911;27;20123;-72
2024/03/08 21:20:30;;;;;;;20.70;13.48;;;;;;;-146.18;100.00;67994.34;10354464;27;20123;-72
2024/03/08 21:25:29;;;;;;;23.63;14.10;;;;;;;-146.18;100.00;67994.34;10351885;27;20047;-72
2024/03/08 21:30:26;;;;;;;23.85;14.40;;;;;;;-146.18;100.00;67994.34;10345386;27;20123;-71
2024/03/08 21:35:25;;;;;;;22.15;13.90;;;;;;;-146.18;100.00;67994.34;10351354;27;20140;-72
2024/03/08 21:40:22;;;;;;;28.85;14.50;;;;;;;-146.18;100.00;67994.34;10339944;27;20052;-72
2024/03/08 21:45:21;;;;;;;24.00;14.30;;;;;;;-146.18;100.00;67994.34;10346698;27;20044;-72
2024/03/08 21:50:18;;;;;;;21.48;13.68;;;;;;;-146.18;100.00;67994.34;10349246;27;20457;-72
2024/03/08 21:55:15;;;;;;;23.13;14.30;;;;;;;-146.18;100.00;67994.34;10354571;27;20106;-72
2024/03/08 22:00:12;;;;;;;25.40;14.30;;;;;;;-146.18;100.00;67994.34;10349863;27;20553;-72
2024/03/08 22:05:23;;;;;;;26.50;15.38;;;;;;;-146.18;100.00;67994.34;10349758;27;20044;-72